El Macero, CA (95618)

7:16 AM PST on December 20, 2014 (GMT -0800)
Ivy Town | Change Station
CLOSE
Current Station
Personal Weather Station
Location: Davis, CA
Elevation: 33 ft
Nearby Weather Stations

Elev 33 ft 38.55 °N, 121.74 °W | Updated 43 seconds ago

Overcast
Overcast
53.1 °F
Feels Like 53.1 °F
N
3.8
Wind Variable Wind from South
Gusts 5.4 mph

Today
High -- | Low -- °F
--% Chance of Precip.
Yesterday
High -- | Low -- °F
Precip. -- in
7:20 AM 4:48 PM
Waning Crescent, 3% visible
Pressure 30.16 in
Visibility 5.0 miles
Clouds Overcast 300 ft
Dew Point 52 °F
Humidity 98%
Rainfall 1.94 in
Snow Depth Not available.
UV 0 out of 12
Pollen 2.90 out of 12
Air Quality Not available.
Flu Activity Not available.
METAR KEDU 201455Z AUTO 15007KT 5SM OVC003 11/10 A3016 RMK AO1

More Conditions Fewer Conditions

Pressure 30.16 in
Visibility 5.0 miles
Clouds Overcast 300 ft
Dew Point 52 °F
Humidity 98%
Rainfall 1.94 in
Snow Depth Not available.
UV 0 out of 12
Pollen 2.90 out of 12
Air Quality Not available.
Flu Activity Not available.
METAR KEDU 201455Z AUTO 15007KT 5SM OVC003 11/10 A3016 RMK AO1

More Conditions Fewer Conditions

10-Day Weather Forecast

Almanac

Astronomy

Dec. 20, 2014 Rise Set
Actual Time
Civil Twilight
Nautical Twilight
Astronomical Twilight
Moon
Length of Visible Light
Length of Day
Tomorrow will be .
, % of the Moon is Illuminated

Today's Extremes

State Highs State Lows

Community

WunderPhotos

Upload Photos

1,779,198 photos uploaded!

WunderBlogs® & News

Nearby

Air Quality

  Air Quality AQ Index Pollutant
Not available.

Snow Depth

Station Depth Elevation

Earthquake Activity

City Distance Mag. Time & Date
Minimum magnitude displayed is 2.5.

Coastal Water Temperatures

Place Temperature

Nearby Weather Stations